Flight Track Log - Related Links

Times and Time Zones

All times are in EDT time to prevent confusion due to time zone crossing. See the SWA2130 flight status page for this flight to view local times or setup timezone preferences in your user account.

Time Position Orientation Groundspeed Altitude Reporting Facility
EDT Latitude Longitude Course Direction KTS MPH feet Rate Location/Type
Thu 08:50:44 PM 33.9447 -118.4539 210° Southwest 159 183 1,700  Level Los Angeles Center
Thu 08:51:46 PM 33.8933 -118.4903 210° Southwest 239 275 3,700 2,226 Climbing Los Angeles Center
Thu 08:52:48 PM 33.8256 -118.4978 185° South 270 311 6,300 3,435 Climbing Los Angeles Center
Thu 08:53:50 PM 33.7306 -118.5142 188° South 292 336 10,800 3,484 Climbing Los Angeles Center
Thu 08:54:52 PM 33.6778 -118.4336 128° Southeast 332 382 13,500 2,758 Climbing Los Angeles Center
Thu 08:55:54 PM 33.6736 -118.3172 92° East 362 417 16,500 2,855 Climbing Los Angeles Center
Thu 08:56:56 PM 33.6708 -118.1689 91° East 379 436 19,400 2,903 Climbing Los Angeles Center
Thu 08:57:58 PM 33.6583 -118.0411 97° East 386 444 22,500 2,758 Climbing Los Angeles Center
Thu 08:59:00 PM 33.6472 -117.9089 96° East 396 456 25,100 2,419 Climbing Los Angeles Center
Thu 09:00:02 PM 33.6350 -117.7700 96° East 414 476 27,500 2,129 Climbing Los Angeles Center
Thu 09:01:04 PM 33.6217 -117.6247 96° East 432 497 29,500 1,728 Climbing Los Angeles Center
Thu 09:02:07 PM 33.6083 -117.4733 96° East 450 518 31,100 1,920 Climbing Los Angeles Center
Thu 09:03:09 PM 33.5900 -117.2858 97° East 470 541 33,500 2,129 Climbing Los Angeles Center
Thu 09:04:11 PM 33.5764 -117.1397 96° East 468 539 35,500 1,548 Climbing Los Angeles Center
Thu 09:05:13 PM 33.5589 -116.9847 98° East 468 539 36,700 1,355 Climbing Los Angeles Center
Thu 09:06:15 PM 33.5442 -116.8258 96° East 476 548 38,300 1,694 Climbing Los Angeles Center
Thu 09:07:17 PM 33.5253 -116.6386 97° East 471 542 40,200 1,191 Climbing Los Angeles Center
Thu 09:08:31 PM 33.5067 -116.4525 97° East 468 539 41,000 353 Climbing Los Angeles Center
Thu 09:09:33 PM 33.4900 -116.2967 97° East 471 542 41,000  Level Los Angeles Center
Thu 09:10:35 PM 33.4742 -116.1397 97° East 475 547 41,000  Level Los Angeles Center
Thu 09:11:37 PM 33.4581 -115.9842 97° East 472 543 41,000  Level Los Angeles Center
Thu 09:12:39 PM 33.4406 -115.8292 98° East 471 542 41,000  Level Los Angeles Center
Thu 09:13:41 PM 33.4253 -115.6742 97° East 468 539 41,000  Level Los Angeles Center
Thu 09:14:43 PM 33.4078 -115.5178 98° East 472 543 41,000  Level Los Angeles Center
Thu 09:15:45 PM 33.3850 -115.3311 98° East 474 545 41,000  Level Los Angeles Center
Thu 09:16:47 PM 33.3672 -115.1753 98° East 473 544 41,000  Level Los Angeles Center
Thu 09:17:49 PM 33.3497 -115.0200 98° East 471 542 41,000  Level Los Angeles Center
Thu 09:18:51 PM 33.3317 -114.8633 98° East 477 549 41,000  Level Los Angeles Center
Thu 09:19:53 PM 33.3153 -114.7083 97° East 472 543 41,000  Level Los Angeles Center
Thu 09:20:55 PM 33.2969 -114.5533 98° East 471 542 41,000  Level Los Angeles Center
Thu 09:21:12 PM 33.2919 -114.4994 96° East 469 540 41,000  Level Albuquerque Center
Thu 09:22:13 PM 33.2739 -114.3453 98° East 468 539 41,000  Level Albuquerque Center
Thu 09:23:15 PM 33.2564 -114.1903 98° East 470 541 41,000  Level Albuquerque Center
Thu 09:24:16 PM 33.2369 -114.0381 99° East 466 536 41,000  Level Albuquerque Center
Thu 09:25:18 PM 33.2178 -113.8842 98° East 467 537 41,000  Level Albuquerque Center
Thu 09:26:19 PM 33.1947 -113.7008 98° East 466 536 41,000  Level Albuquerque Center
Thu 09:27:21 PM 33.1750 -113.5483 99° East 464 534 41,000  Level Albuquerque Center
Thu 09:28:22 PM 33.1550 -113.3950 99° East 465 535 41,000  Level Albuquerque Center
Thu 09:29:24 PM 33.1356 -113.2411 99° East 467 537 41,000  Level Albuquerque Center
Thu 09:30:25 PM 33.1167 -113.0850 98° East 471 542 41,000  Level Albuquerque Center
Thu 09:31:26 PM 33.0961 -112.9308 99° East 470 541 41,000  Level Albuquerque Center
Thu 09:32:28 PM 33.0753 -112.7767 99° East 469 540 41,000  Level Albuquerque Center
Thu 09:33:29 PM 33.0544 -112.6217 99° East 471 542 41,000  Level Albuquerque Center
Thu 09:34:31 PM 33.0342 -112.4669 99° East 471 542 41,000  Level Albuquerque Center
Thu 09:35:32 PM 33.0128 -112.3103 99° East 477 549 41,000  Level Albuquerque Center
Thu 09:36:33 PM 32.9886 -112.1342 99° East 477 549 41,000  Level Albuquerque Center
Thu 09:37:35 PM 32.9672 -111.9800 99° East 475 547 41,000  Level Albuquerque Center
Thu 09:38:36 PM 32.9456 -111.8261 99° East 474 545 41,000  Level Albuquerque Center
Thu 09:39:37 PM 32.9253 -111.6725 99° East 474 545 41,000  Level Albuquerque Center
Thu 09:40:39 PM 32.9033 -111.5200 100° East 472 543 41,000  Level Albuquerque Center
Thu 09:41:40 PM 32.8756 -111.3369 100° East 471 542 41,000  Level Albuquerque Center
Thu 09:42:41 PM 32.8531 -111.1822 100° East 475 547 41,000  Level Albuquerque Center
Thu 09:43:42 PM 32.8317 -111.0289 99° East 474 545 41,000  Level Albuquerque Center
Thu 09:44:44 PM 32.8083 -110.8747 100° East 477 549 41,000  Level Albuquerque Center
Thu 09:45:45 PM 32.7839 -110.7206 101° East 477 549 41,000  Level Albuquerque Center
Thu 09:46:46 PM 32.7628 -110.5733 100° East 478 550 41,000 -341 Level Albuquerque Center
Thu 09:47:48 PM 32.7356 -110.3886 100° East 478 550 40,300 -780 Descending Albuquerque Center
Thu 09:48:49 PM 32.7117 -110.2333 100° East 483 556 39,400 -639 Descending Albuquerque Center
Thu 09:49:50 PM 32.6858 -110.0758 101° East 488 562 39,000 -197 Descending Albuquerque Center
Thu 09:50:51 PM 32.6622 -109.9203 100° East 486 559 39,000 -244 Level Albuquerque Center
Thu 09:51:53 PM 32.6372 -109.7647 101° East 486 559 38,500 -732 Descending Albuquerque Center
Thu 09:52:54 PM 32.6111 -109.6072 101° East 494 568 37,500 -934 Descending Albuquerque Center
Thu 09:53:55 PM 32.5856 -109.4517 101° East 490 564 36,600 -1,033 Descending Albuquerque Center
Thu 09:54:56 PM 32.5561 -109.2672 101° East 485 558 35,400 -1,024 Descending Albuquerque Center
Thu 09:55:58 PM 32.5311 -109.1122 101° East 485 558 34,500 -927 Descending Albuquerque Center
Thu 09:56:59 PM 32.5042 -108.9539 101° East 492 566 33,500 -738 Descending Albuquerque Center
Thu 09:58:00 PM 32.4786 -108.8028 101° East 482 555 33,000 -246 Descending Albuquerque Center
Thu 09:59:01 PM 32.4550 -108.6572 101° East 464 534 33,000  Level Albuquerque Center
Thu 10:00:03 PM 32.4258 -108.4833 101° East 456 525 33,000  Level Albuquerque Center
Thu 10:01:05 PM 32.4047 -108.3569 101° East 455 524 33,000  Level Albuquerque Center
Thu 10:02:06 PM 32.3747 -108.1800 101° East 457 526 33,000 -344 Level Albuquerque Center
Thu 10:03:07 PM 32.3497 -108.0331 101° East 458 527 32,300 -1,623 Descending Albuquerque Center
Thu 10:04:08 PM 32.3231 -107.8836 102° East 463 533 29,700 -2,390 Descending Albuquerque Center
Thu 10:05:10 PM 32.2986 -107.7364 101° East 462 532 27,400 -2,244 Descending Albuquerque Center
Thu 10:06:11 PM 32.2728 -107.5944 102° East 451 519 25,100 -2,311 Descending Albuquerque Center
Thu 10:07:12 PM 32.2378 -107.4475 106° East 435 501 22,700 -2,164 Descending Albuquerque Center
Thu 10:08:13 PM 32.2056 -107.3189 106° East 419 482 20,700 -1,820 Descending Albuquerque Center
Thu 10:09:14 PM 32.1814 -107.2058 104° East 396 456 19,000 -1,805 Descending Albuquerque Center
Thu 10:10:16 PM 32.1472 -107.0633 106° East 383 441 17,000 -2,000 Descending Albuquerque Center
Thu 10:11:17 PM 32.1192 -106.9472 106° East 374 430 14,900 -1,967 Descending Albuquerque Center
Thu 10:12:18 PM 32.0931 -106.8369 106° East 355 409 13,000 -1,869 Descending Albuquerque Center
Thu 10:13:19 PM 32.0647 -106.7317 108° East 345 397 11,100 -1,512 Descending Albuquerque Center
Thu 10:14:21 PM 31.9764 -106.6883 157° South 342 394 9,900 -1,268 Descending Albuquerque Center
Thu 10:15:22 PM 31.8956 -106.6567 162° South 309 356 8,500 -984 Descending Albuquerque Center
Thu 10:16:23 PM 31.8292 -106.6214 156° South 265 305 7,900 -836 Descending Albuquerque Center
Thu 10:17:24 PM 31.8008 -106.5547 117° Southeast 217 250 6,800 -1,024 Descending Albuquerque Center
Thu 10:18:26 PM 31.7769 -106.4967 116° Southeast 176 203 5,800 -885 Descending Albuquerque Center
Thu 10:19:26 PM 31.7672 -106.4564 106° East 129 148 5,000 -645 Descending Albuquerque Center
Thu 10:20:27 PM 31.7825 -106.4228 62° Northeast 125 144 4,500 -532 Descending Albuquerque Center
Thu 10:21:30 PM 31.8100 -106.3867 48° Northeast 135 155 3,900 -571 Descending Albuquerque Center
Thu 10:23:00 PM 31.8072 -106.3764 90° East  Level Estimated
Thu 10:30:00 PM 31.8072 -106.3764 90° East  Level Estimated
Thu 10:31:00 PM 31.8072 -106.3764 90° East  Level Estimated
Thu 10:32:00 PM 31.8072 -106.3764 90° East  Level Estimated
Thu 10:33:00 PM 31.8072 -106.3764 90° East  Level Estimated

Login

Don't have an account? Register now (free) for customized features, flight alerts, and more!